Saint Rose, Louisiana
Current Conditions -  °F | °C
As of 5:53 PM on Saturday 25 Oct 2014 (Local Time) from KMSY Reporting Station
Clear Clear  
Wind Chill: 75°   Ceiling: Unl
Heat Index: 75°   Visibility: 10mi
Dew Point: 56°   Wind: 7mph
Humidity: 51%   Direction: 310°NW
Pressure: 30.06"   Gusts: NA
Location:  29.96°N, 90.31°W
Report Text: KMSY 252253Z 31006KT 10SM CLR 24/13 A3006 RMK AO2 SLP183 T02390133
Loading
Personal Weather Stations






























Interactive Weather Map
Tropical Storm Tracking
New forecast layout! Learn more

10-Day Weather Forecast

Advertisements
Track Severe Weather on mobile